sensor_id;sensor_type;location;lat;lon;timestamp;P1;durP1;ratioP1;P2;durP2;ratioP2
36195;SDS011;22237;51.974;4.616;2022-08-14T00:02:19;63.15;;;59.13;;
36195;SDS011;22237;51.974;4.616;2022-08-14T00:04:44;62.60;;;58.10;;
36195;SDS011;22237;51.974;4.616;2022-08-14T00:07:10;60.90;;;57.13;;
36195;SDS011;22237;51.974;4.616;2022-08-14T00:09:35;62.00;;;58.05;;
36195;SDS011;22237;51.974;4.616;2022-08-14T00:12:00;68.95;;;64.45;;
36195;SDS011;22237;51.974;4.616;2022-08-14T00:14:26;68.18;;;63.95;;
36195;SDS011;22237;51.974;4.616;2022-08-14T00:16:51;70.38;;;66.00;;
36195;SDS011;22237;51.974;4.616;2022-08-14T00:19:17;69.33;;;64.10;;
36195;SDS011;22237;51.974;4.616;2022-08-14T00:21:42;65.82;;;61.67;;
36195;SDS011;22237;51.974;4.616;2022-08-14T00:24:07;66.93;;;62.73;;
36195;SDS011;22237;51.974;4.616;2022-08-14T00:26:32;67.90;;;63.67;;
36195;SDS011;22237;51.974;4.616;2022-08-14T00:28:58;68.60;;;64.30;;
36195;SDS011;22237;51.974;4.616;2022-08-14T00:31:23;70.50;;;66.07;;
36195;SDS011;22237;51.974;4.616;2022-08-14T00:33:48;67.57;;;63.37;;
36195;SDS011;22237;51.974;4.616;2022-08-14T00:36:14;73.43;;;68.85;;
36195;SDS011;22237;51.974;4.616;2022-08-14T00:38:39;67.03;;;62.60;;
36195;SDS011;22237;51.974;4.616;2022-08-14T00:41:05;66.30;;;62.13;;
36195;SDS011;22237;51.974;4.616;2022-08-14T00:43:31;69.05;;;64.53;;
36195;SDS011;22237;51.974;4.616;2022-08-14T00:45:56;69.55;;;65.20;;
36195;SDS011;22237;51.974;4.616;2022-08-14T00:48:21;69.93;;;65.53;;
36195;SDS011;22237;51.974;4.616;2022-08-14T00:50:46;71.63;;;67.13;;
36195;SDS011;22237;51.974;4.616;2022-08-14T00:53:12;68.83;;;64.53;;
36195;SDS011;22237;51.974;4.616;2022-08-14T00:55:37;69.50;;;64.90;;
36195;SDS011;22237;51.974;4.616;2022-08-14T00:58:05;69.50;;;65.00;;
36195;SDS011;22237;51.974;4.616;2022-08-14T01:00:49;69.05;;;64.85;;
36195;SDS011;22237;51.974;4.616;2022-08-14T01:03:14;67.63;;;62.63;;
36195;SDS011;22237;51.974;4.616;2022-08-14T01:05:40;70.03;;;65.60;;
36195;SDS011;22237;51.974;4.616;2022-08-14T01:08:09;71.75;;;67.28;;
36195;SDS011;22237;51.974;4.616;2022-08-14T01:10:35;68.65;;;64.43;;
36195;SDS011;22237;51.974;4.616;2022-08-14T01:13:17;68.55;;;64.03;;
36195;SDS011;22237;51.974;4.616;2022-08-14T01:15:43;65.40;;;61.28;;
36195;SDS011;22237;51.974;4.616;2022-08-14T01:18:09;67.32;;;63.05;;
36195;SDS011;22237;51.974;4.616;2022-08-14T01:20:54;60.75;;;56.90;;
36195;SDS011;22237;51.974;4.616;2022-08-14T01:23:31;60.53;;;56.65;;
36195;SDS011;22237;51.974;4.616;2022-08-14T01:25:56;62.88;;;58.55;;
36195;SDS011;22237;51.974;4.616;2022-08-14T01:28:22;60.72;;;56.65;;
36195;SDS011;22237;51.974;4.616;2022-08-14T01:30:48;62.13;;;58.22;;
36195;SDS011;22237;51.974;4.616;2022-08-14T01:33:19;64.45;;;60.40;;
36195;SDS011;22237;51.974;4.616;2022-08-14T01:35:46;68.78;;;64.28;;
36195;SDS011;22237;51.974;4.616;2022-08-14T01:38:11;62.30;;;58.27;;
36195;SDS011;22237;51.974;4.616;2022-08-14T01:40:38;62.08;;;58.20;;
36195;SDS011;22237;51.974;4.616;2022-08-14T01:43:07;63.60;;;59.40;;
36195;SDS011;22237;51.974;4.616;2022-08-14T01:45:32;61.72;;;57.85;;
36195;SDS011;22237;51.974;4.616;2022-08-14T01:47:57;61.80;;;57.70;;
36195;SDS011;22237;51.974;4.616;2022-08-14T01:50:23;62.28;;;58.15;;
36195;SDS011;22237;51.974;4.616;2022-08-14T01:52:49;61.33;;;57.30;;
36195;SDS011;22237;51.974;4.616;2022-08-14T01:55:14;60.83;;;56.90;;
36195;SDS011;22237;51.974;4.616;2022-08-14T01:57:41;59.55;;;55.70;;
36195;SDS011;22237;51.974;4.616;2022-08-14T02:00:07;60.15;;;56.15;;
36195;SDS011;22237;51.974;4.616;2022-08-14T02:02:42;56.72;;;53.08;;
36195;SDS011;22237;51.974;4.616;2022-08-14T02:05:10;56.90;;;53.00;;
36195;SDS011;22237;51.974;4.616;2022-08-14T02:07:36;52.35;;;49.03;;
36195;SDS011;22237;51.974;4.616;2022-08-14T02:10:02;55.65;;;51.83;;
36195;SDS011;22237;51.974;4.616;2022-08-14T02:12:27;54.20;;;50.70;;
36195;SDS011;22237;51.974;4.616;2022-08-14T02:14:54;57.50;;;53.60;;
36195;SDS011;22237;51.974;4.616;2022-08-14T02:17:20;54.22;;;50.53;;
36195;SDS011;22237;51.974;4.616;2022-08-14T02:19:47;53.63;;;50.17;;
36195;SDS011;22237;51.974;4.616;2022-08-14T02:22:13;52.97;;;49.45;;
36195;SDS011;22237;51.974;4.616;2022-08-14T02:24:43;51.47;;;47.97;;
36195;SDS011;22237;51.974;4.616;2022-08-14T02:27:08;50.73;;;47.43;;
36195;SDS011;22237;51.974;4.616;2022-08-14T02:29:34;51.30;;;47.95;;
36195;SDS011;22237;51.974;4.616;2022-08-14T02:32:00;50.13;;;46.90;;
36195;SDS011;22237;51.974;4.616;2022-08-14T02:34:31;53.88;;;50.28;;
36195;SDS011;22237;51.974;4.616;2022-08-14T02:37:10;48.85;;;45.63;;
36195;SDS011;22237;51.974;4.616;2022-08-14T02:39:39;52.40;;;48.92;;
36195;SDS011;22237;51.974;4.616;2022-08-14T02:42:06;53.03;;;49.35;;
36195;SDS011;22237;51.974;4.616;2022-08-14T02:44:32;53.72;;;50.00;;
36195;SDS011;22237;51.974;4.616;2022-08-14T02:46:58;52.58;;;48.67;;
36195;SDS011;22237;51.974;4.616;2022-08-14T02:49:24;52.47;;;48.83;;
36195;SDS011;22237;51.974;4.616;2022-08-14T02:51:53;52.33;;;48.70;;
36195;SDS011;22237;51.974;4.616;2022-08-14T02:54:19;51.80;;;48.30;;
36195;SDS011;22237;51.974;4.616;2022-08-14T02:56:47;50.83;;;47.40;;
36195;SDS011;22237;51.974;4.616;2022-08-14T02:59:12;52.77;;;49.30;;
36195;SDS011;22237;51.974;4.616;2022-08-14T03:01:38;52.40;;;48.67;;
36195;SDS011;22237;51.974;4.616;2022-08-14T03:04:04;54.25;;;50.15;;
36195;SDS011;22237;51.974;4.616;2022-08-14T03:06:30;52.97;;;49.47;;
36195;SDS011;22237;51.974;4.616;2022-08-14T03:08:55;55.05;;;51.17;;
36195;SDS011;22237;51.974;4.616;2022-08-14T03:11:21;54.00;;;50.38;;
36195;SDS011;22237;51.974;4.616;2022-08-14T03:13:48;56.83;;;52.22;;
36195;SDS011;22237;51.974;4.616;2022-08-14T03:16:14;53.75;;;49.75;;
36195;SDS011;22237;51.974;4.616;2022-08-14T03:18:43;53.63;;;50.13;;
36195;SDS011;22237;51.974;4.616;2022-08-14T03:21:10;54.33;;;50.60;;
36195;SDS011;22237;51.974;4.616;2022-08-14T03:23:37;54.30;;;50.65;;
36195;SDS011;22237;51.974;4.616;2022-08-14T03:26:03;56.28;;;52.50;;
36195;SDS011;22237;51.974;4.616;2022-08-14T03:28:31;53.20;;;49.63;;
36195;SDS011;22237;51.974;4.616;2022-08-14T03:30:56;54.57;;;50.77;;
36195;SDS011;22237;51.974;4.616;2022-08-14T03:33:22;56.88;;;52.75;;
36195;SDS011;22237;51.974;4.616;2022-08-14T03:35:47;59.47;;;55.50;;
36195;SDS011;22237;51.974;4.616;2022-08-14T03:38:13;58.33;;;54.33;;
36195;SDS011;22237;51.974;4.616;2022-08-14T03:40:42;59.85;;;55.85;;
36195;SDS011;22237;51.974;4.616;2022-08-14T03:43:08;57.53;;;53.60;;
36195;SDS011;22237;51.974;4.616;2022-08-14T03:45:34;63.25;;;59.00;;
36195;SDS011;22237;51.974;4.616;2022-08-14T03:48:01;61.95;;;57.95;;
36195;SDS011;22237;51.974;4.616;2022-08-14T03:50:28;61.67;;;57.50;;
36195;SDS011;22237;51.974;4.616;2022-08-14T03:52:53;65.75;;;61.25;;
36195;SDS011;22237;51.974;4.616;2022-08-14T03:55:19;68.10;;;63.53;;
36195;SDS011;22237;51.974;4.616;2022-08-14T03:57:44;69.27;;;64.47;;
36195;SDS011;22237;51.974;4.616;2022-08-14T04:00:10;65.70;;;61.27;;
36195;SDS011;22237;51.974;4.616;2022-08-14T04:02:37;67.38;;;62.72;;
36195;SDS011;22237;51.974;4.616;2022-08-14T04:05:08;65.82;;;61.47;;
36195;SDS011;22237;51.974;4.616;2022-08-14T04:07:34;70.80;;;65.65;;
36195;SDS011;22237;51.974;4.616;2022-08-14T04:10:03;67.55;;;63.08;;
36195;SDS011;22237;51.974;4.616;2022-08-14T04:12:28;73.00;;;68.25;;
36195;SDS011;22237;51.974;4.616;2022-08-14T04:14:53;70.63;;;65.73;;
36195;SDS011;22237;51.974;4.616;2022-08-14T04:17:19;70.25;;;65.30;;
36195;SDS011;22237;51.974;4.616;2022-08-14T04:19:44;70.97;;;66.00;;
36195;SDS011;22237;51.974;4.616;2022-08-14T04:22:10;69.28;;;64.65;;
36195;SDS011;22237;51.974;4.616;2022-08-14T04:24:35;70.13;;;65.45;;
36195;SDS011;22237;51.974;4.616;2022-08-14T04:27:00;71.68;;;66.82;;
36195;SDS011;22237;51.974;4.616;2022-08-14T04:29:26;69.20;;;64.25;;
36195;SDS011;22237;51.974;4.616;2022-08-14T04:31:51;69.33;;;64.67;;
36195;SDS011;22237;51.974;4.616;2022-08-14T04:34:16;69.50;;;64.80;;
36195;SDS011;22237;51.974;4.616;2022-08-14T04:36:41;72.33;;;67.43;;
36195;SDS011;22237;51.974;4.616;2022-08-14T04:39:25;70.80;;;65.97;;
36195;SDS011;22237;51.974;4.616;2022-08-14T04:42:09;71.90;;;66.93;;
36195;SDS011;22237;51.974;4.616;2022-08-14T04:44:53;67.70;;;63.15;;
36195;SDS011;22237;51.974;4.616;2022-08-14T04:47:18;72.10;;;67.10;;
36195;SDS011;22237;51.974;4.616;2022-08-14T04:50:03;69.70;;;64.95;;
36195;SDS011;22237;51.974;4.616;2022-08-14T04:52:28;72.38;;;67.38;;
36195;SDS011;22237;51.974;4.616;2022-08-14T04:54:53;71.10;;;66.30;;
36195;SDS011;22237;51.974;4.616;2022-08-14T04:57:18;70.90;;;66.23;;
36195;SDS011;22237;51.974;4.616;2022-08-14T04:59:44;68.87;;;63.87;;
36195;SDS011;22237;51.974;4.616;2022-08-14T05:02:09;72.57;;;67.47;;
36195;SDS011;22237;51.974;4.616;2022-08-14T05:04:34;70.77;;;65.87;;
36195;SDS011;22237;51.974;4.616;2022-08-14T05:06:59;72.87;;;67.97;;
36195;SDS011;22237;51.974;4.616;2022-08-14T05:09:25;71.10;;;66.30;;
36195;SDS011;22237;51.974;4.616;2022-08-14T05:11:50;73.00;;;67.80;;
36195;SDS011;22237;51.974;4.616;2022-08-14T05:14:17;73.05;;;67.85;;
36195;SDS011;22237;51.974;4.616;2022-08-14T05:16:43;72.68;;;67.43;;
36195;SDS011;22237;51.974;4.616;2022-08-14T05:19:08;71.32;;;66.18;;
36195;SDS011;22237;51.974;4.616;2022-08-14T05:21:37;73.55;;;68.47;;
36195;SDS011;22237;51.974;4.616;2022-08-14T05:24:03;71.33;;;66.03;;
36195;SDS011;22237;51.974;4.616;2022-08-14T05:26:28;70.95;;;66.10;;
36195;SDS011;22237;51.974;4.616;2022-08-14T05:28:53;69.77;;;64.77;;
36195;SDS011;22237;51.974;4.616;2022-08-14T05:31:18;70.60;;;65.67;;
36195;SDS011;22237;51.974;4.616;2022-08-14T05:33:44;66.60;;;61.73;;
36195;SDS011;22237;51.974;4.616;2022-08-14T05:36:10;69.90;;;65.13;;
36195;SDS011;22237;51.974;4.616;2022-08-14T05:38:37;71.28;;;66.28;;
36195;SDS011;22237;51.974;4.616;2022-08-14T05:41:04;72.43;;;67.43;;
36195;SDS011;22237;51.974;4.616;2022-08-14T05:43:30;67.93;;;62.72;;
36195;SDS011;22237;51.974;4.616;2022-08-14T05:45:56;69.28;;;64.53;;
36195;SDS011;22237;51.974;4.616;2022-08-14T05:48:22;68.57;;;63.80;;
36195;SDS011;22237;51.974;4.616;2022-08-14T05:50:48;68.65;;;63.67;;
36195;SDS011;22237;51.974;4.616;2022-08-14T05:53:13;68.57;;;63.78;;
36195;SDS011;22237;51.974;4.616;2022-08-14T05:55:38;72.70;;;67.20;;
36195;SDS011;22237;51.974;4.616;2022-08-14T05:58:04;67.15;;;62.58;;
36195;SDS011;22237;51.974;4.616;2022-08-14T06:00:31;67.68;;;62.83;;
36195;SDS011;22237;51.974;4.616;2022-08-14T06:02:58;67.88;;;62.78;;
36195;SDS011;22237;51.974;4.616;2022-08-14T06:05:23;69.38;;;63.88;;
36195;SDS011;22237;51.974;4.616;2022-08-14T06:07:48;65.97;;;61.13;;
36195;SDS011;22237;51.974;4.616;2022-08-14T06:10:14;72.85;;;67.53;;
36195;SDS011;22237;51.974;4.616;2022-08-14T06:12:39;65.67;;;60.47;;
36195;SDS011;22237;51.974;4.616;2022-08-14T06:15:05;65.73;;;60.73;;
36195;SDS011;22237;51.974;4.616;2022-08-14T06:17:30;65.68;;;60.97;;
36195;SDS011;22237;51.974;4.616;2022-08-14T06:19:55;67.10;;;62.20;;
36195;SDS011;22237;51.974;4.616;2022-08-14T06:22:20;64.67;;;59.73;;
36195;SDS011;22237;51.974;4.616;2022-08-14T06:24:46;62.33;;;57.83;;
36195;SDS011;22237;51.974;4.616;2022-08-14T06:27:11;58.63;;;54.33;;
36195;SDS011;22237;51.974;4.616;2022-08-14T06:29:36;56.43;;;52.40;;
36195;SDS011;22237;51.974;4.616;2022-08-14T06:32:02;58.60;;;54.42;;
36195;SDS011;22237;51.974;4.616;2022-08-14T06:34:27;58.38;;;53.95;;
36195;SDS011;22237;51.974;4.616;2022-08-14T06:36:53;57.70;;;53.63;;
36195;SDS011;22237;51.974;4.616;2022-08-14T06:39:20;56.70;;;52.30;;
36195;SDS011;22237;51.974;4.616;2022-08-14T06:41:46;53.58;;;49.60;;
36195;SDS011;22237;51.974;4.616;2022-08-14T06:44:11;54.07;;;49.73;;
36195;SDS011;22237;51.974;4.616;2022-08-14T06:46:37;49.70;;;45.83;;
36195;SDS011;22237;51.974;4.616;2022-08-14T06:49:02;48.13;;;44.40;;
36195;SDS011;22237;51.974;4.616;2022-08-14T06:51:27;47.27;;;43.87;;
36195;SDS011;22237;51.974;4.616;2022-08-14T06:53:52;47.30;;;43.72;;
36195;SDS011;22237;51.974;4.616;2022-08-14T06:56:17;44.73;;;41.27;;
36195;SDS011;22237;51.974;4.616;2022-08-14T06:58:43;42.67;;;39.45;;
36195;SDS011;22237;51.974;4.616;2022-08-14T07:01:08;42.80;;;39.07;;
36195;SDS011;22237;51.974;4.616;2022-08-14T07:03:52;40.35;;;37.25;;
36195;SDS011;22237;51.974;4.616;2022-08-14T07:06:36;39.20;;;36.00;;
36195;SDS011;22237;51.974;4.616;2022-08-14T07:09:02;39.10;;;36.05;;
36195;SDS011;22237;51.974;4.616;2022-08-14T07:11:29;38.88;;;35.85;;
36195;SDS011;22237;51.974;4.616;2022-08-14T07:13:54;37.25;;;34.08;;
36195;SDS011;22237;51.974;4.616;2022-08-14T07:16:19;35.53;;;32.83;;
36195;SDS011;22237;51.974;4.616;2022-08-14T07:18:44;36.13;;;33.43;;
36195;SDS011;22237;51.974;4.616;2022-08-14T07:21:10;33.97;;;31.37;;
36195;SDS011;22237;51.974;4.616;2022-08-14T07:23:35;33.57;;;30.60;;
36195;SDS011;22237;51.974;4.616;2022-08-14T07:26:01;30.15;;;27.40;;
36195;SDS011;22237;51.974;4.616;2022-08-14T07:28:30;29.98;;;27.48;;
36195;SDS011;22237;51.974;4.616;2022-08-14T07:30:57;26.93;;;24.77;;
36195;SDS011;22237;51.974;4.616;2022-08-14T07:33:24;27.85;;;25.60;;
36195;SDS011;22237;51.974;4.616;2022-08-14T07:35:49;25.42;;;23.33;;
36195;SDS011;22237;51.974;4.616;2022-08-14T07:38:20;25.30;;;23.27;;
36195;SDS011;22237;51.974;4.616;2022-08-14T07:40:46;24.80;;;22.70;;
36195;SDS011;22237;51.974;4.616;2022-08-14T07:43:12;24.75;;;22.38;;
36195;SDS011;22237;51.974;4.616;2022-08-14T07:45:38;24.73;;;22.73;;
36195;SDS011;22237;51.974;4.616;2022-08-14T07:48:04;23.35;;;21.45;;
36195;SDS011;22237;51.974;4.616;2022-08-14T07:50:30;24.10;;;22.05;;
36195;SDS011;22237;51.974;4.616;2022-08-14T07:52:56;24.60;;;22.20;;
36195;SDS011;22237;51.974;4.616;2022-08-14T07:55:21;22.20;;;20.20;;
36195;SDS011;22237;51.974;4.616;2022-08-14T07:57:46;23.97;;;21.73;;
36195;SDS011;22237;51.974;4.616;2022-08-14T08:02:39;20.92;;;19.15;;
36195;SDS011;22237;51.974;4.616;2022-08-14T08:05:05;20.25;;;18.38;;
36195;SDS011;22237;51.974;4.616;2022-08-14T08:07:30;20.77;;;18.70;;
36195;SDS011;22237;51.974;4.616;2022-08-14T08:09:56;20.63;;;18.73;;
36195;SDS011;22237;51.974;4.616;2022-08-14T08:12:21;21.15;;;19.45;;
36195;SDS011;22237;51.974;4.616;2022-08-14T08:14:49;20.60;;;18.80;;
36195;SDS011;22237;51.974;4.616;2022-08-14T08:17:18;20.58;;;18.65;;
36195;SDS011;22237;51.974;4.616;2022-08-14T08:19:44;19.70;;;17.30;;
36195;SDS011;22237;51.974;4.616;2022-08-14T08:22:10;18.95;;;17.38;;
36195;SDS011;22237;51.974;4.616;2022-08-14T08:24:35;19.92;;;18.38;;
36195;SDS011;22237;51.974;4.616;2022-08-14T08:27:00;19.50;;;17.90;;
36195;SDS011;22237;51.974;4.616;2022-08-14T08:29:26;19.55;;;18.05;;
36195;SDS011;22237;51.974;4.616;2022-08-14T08:31:51;19.63;;;17.93;;
36195;SDS011;22237;51.974;4.616;2022-08-14T08:34:17;18.67;;;17.07;;
36195;SDS011;22237;51.974;4.616;2022-08-14T08:36:43;20.83;;;18.77;;
36195;SDS011;22237;51.974;4.616;2022-08-14T08:39:09;19.52;;;17.83;;
36195;SDS011;22237;51.974;4.616;2022-08-14T08:41:41;18.95;;;17.45;;
36195;SDS011;22237;51.974;4.616;2022-08-14T08:44:06;20.90;;;19.20;;
36195;SDS011;22237;51.974;4.616;2022-08-14T08:46:32;20.73;;;19.00;;
36195;SDS011;22237;51.974;4.616;2022-08-14T08:48:57;19.73;;;18.03;;
36195;SDS011;22237;51.974;4.616;2022-08-14T08:51:26;22.77;;;20.83;;
36195;SDS011;22237;51.974;4.616;2022-08-14T08:53:56;22.38;;;20.60;;
36195;SDS011;22237;51.974;4.616;2022-08-14T08:56:43;23.23;;;21.50;;
36195;SDS011;22237;51.974;4.616;2022-08-14T09:01:51;22.50;;;20.58;;
36195;SDS011;22237;51.974;4.616;2022-08-14T09:04:17;24.00;;;22.25;;
36195;SDS011;22237;51.974;4.616;2022-08-14T09:06:44;25.35;;;23.35;;
36195;SDS011;22237;51.974;4.616;2022-08-14T09:09:16;24.83;;;22.92;;
36195;SDS011;22237;51.974;4.616;2022-08-14T09:11:41;26.48;;;24.48;;
36195;SDS011;22237;51.974;4.616;2022-08-14T09:14:06;26.58;;;24.60;;
36195;SDS011;22237;51.974;4.616;2022-08-14T09:16:32;26.40;;;24.30;;
36195;SDS011;22237;51.974;4.616;2022-08-14T09:18:57;25.75;;;23.65;;
36195;SDS011;22237;51.974;4.616;2022-08-14T09:21:22;25.43;;;23.63;;
36195;SDS011;22237;51.974;4.616;2022-08-14T09:23:48;26.60;;;24.60;;
36195;SDS011;22237;51.974;4.616;2022-08-14T09:26:13;26.15;;;24.25;;
36195;SDS011;22237;51.974;4.616;2022-08-14T09:28:38;25.87;;;23.90;;
36195;SDS011;22237;51.974;4.616;2022-08-14T09:31:03;25.63;;;23.83;;
36195;SDS011;22237;51.974;4.616;2022-08-14T09:43:32;25.67;;;23.77;;
36195;SDS011;22237;51.974;4.616;2022-08-14T09:46:06;26.85;;;24.73;;
36195;SDS011;22237;51.974;4.616;2022-08-14T09:48:33;26.08;;;23.85;;
36195;SDS011;22237;51.974;4.616;2022-08-14T09:50:59;24.75;;;22.85;;
36195;SDS011;22237;51.974;4.616;2022-08-14T09:53:35;25.30;;;23.13;;
36195;SDS011;22237;51.974;4.616;2022-08-14T09:56:06;24.73;;;22.92;;
36195;SDS011;22237;51.974;4.616;2022-08-14T09:58:49;24.73;;;22.85;;
36195;SDS011;22237;51.974;4.616;2022-08-14T10:01:18;25.52;;;23.90;;
36195;SDS011;22237;51.974;4.616;2022-08-14T10:03:50;24.90;;;22.88;;
36195;SDS011;22237;51.974;4.616;2022-08-14T10:06:27;26.02;;;24.23;;
36195;SDS011;22237;51.974;4.616;2022-08-14T10:08:56;25.88;;;24.00;;
36195;SDS011;22237;51.974;4.616;2022-08-14T10:13:47;25.53;;;23.80;;
36195;SDS011;22237;51.974;4.616;2022-08-14T10:16:13;27.25;;;25.45;;
36195;SDS011;22237;51.974;4.616;2022-08-14T10:18:39;28.15;;;25.98;;
36195;SDS011;22237;51.974;4.616;2022-08-14T10:21:07;27.50;;;25.50;;
36195;SDS011;22237;51.974;4.616;2022-08-14T10:23:39;26.50;;;24.63;;
36195;SDS011;22237;51.974;4.616;2022-08-14T10:26:07;26.60;;;24.88;;
36195;SDS011;22237;51.974;4.616;2022-08-14T10:28:39;27.98;;;26.08;;
36195;SDS011;22237;51.974;4.616;2022-08-14T10:31:14;27.35;;;25.27;;
36195;SDS011;22237;51.974;4.616;2022-08-14T10:33:40;27.88;;;25.90;;
36195;SDS011;22237;51.974;4.616;2022-08-14T10:36:05;28.87;;;26.97;;
36195;SDS011;22237;51.974;4.616;2022-08-14T10:38:34;28.23;;;26.33;;
36195;SDS011;22237;51.974;4.616;2022-08-14T10:41:09;30.00;;;27.23;;
36195;SDS011;22237;51.974;4.616;2022-08-14T10:43:36;27.42;;;25.42;;
36195;SDS011;22237;51.974;4.616;2022-08-14T10:46:10;29.45;;;27.23;;
36195;SDS011;22237;51.974;4.616;2022-08-14T10:48:35;28.42;;;26.52;;
36195;SDS011;22237;51.974;4.616;2022-08-14T10:51:01;27.90;;;26.10;;
36195;SDS011;22237;51.974;4.616;2022-08-14T10:53:33;27.37;;;25.57;;
36195;SDS011;22237;51.974;4.616;2022-08-14T10:55:59;27.98;;;26.08;;
36195;SDS011;22237;51.974;4.616;2022-08-14T10:58:28;28.25;;;26.15;;
36195;SDS011;22237;51.974;4.616;2022-08-14T11:00:55;27.90;;;25.92;;
36195;SDS011;22237;51.974;4.616;2022-08-14T11:03:20;28.20;;;26.23;;
36195;SDS011;22237;51.974;4.616;2022-08-14T11:05:46;25.70;;;24.10;;
36195;SDS011;22237;51.974;4.616;2022-08-14T11:08:12;26.05;;;24.15;;
36195;SDS011;22237;51.974;4.616;2022-08-14T11:13:15;28.40;;;26.50;;
36195;SDS011;22237;51.974;4.616;2022-08-14T11:15:40;27.92;;;25.55;;
36195;SDS011;22237;51.974;4.616;2022-08-14T11:18:05;25.35;;;22.83;;
36195;SDS011;22237;51.974;4.616;2022-08-14T11:20:31;24.65;;;22.50;;
36195;SDS011;22237;51.974;4.616;2022-08-14T11:22:58;22.90;;;21.40;;
36195;SDS011;22237;51.974;4.616;2022-08-14T11:25:24;24.13;;;21.60;;
36195;SDS011;22237;51.974;4.616;2022-08-14T11:27:51;20.02;;;18.73;;
36195;SDS011;22237;51.974;4.616;2022-08-14T11:30:18;22.80;;;21.30;;
36195;SDS011;22237;51.974;4.616;2022-08-14T11:32:45;20.05;;;18.75;;
36195;SDS011;22237;51.974;4.616;2022-08-14T11:35:13;21.83;;;20.38;;
36195;SDS011;22237;51.974;4.616;2022-08-14T11:40:21;19.50;;;18.30;;
36195;SDS011;22237;51.974;4.616;2022-08-14T11:42:47;20.50;;;18.45;;
36195;SDS011;22237;51.974;4.616;2022-08-14T11:45:13;18.48;;;17.17;;
36195;SDS011;22237;51.974;4.616;2022-08-14T11:47:38;18.92;;;17.42;;
36195;SDS011;22237;51.974;4.616;2022-08-14T11:50:20;18.47;;;17.27;;
36195;SDS011;22237;51.974;4.616;2022-08-14T11:52:47;17.63;;;16.52;;
36195;SDS011;22237;51.974;4.616;2022-08-14T11:55:13;18.87;;;17.47;;
36195;SDS011;22237;51.974;4.616;2022-08-14T11:57:39;18.80;;;17.60;;
36195;SDS011;22237;51.974;4.616;2022-08-14T12:00:09;18.17;;;17.08;;
36195;SDS011;22237;51.974;4.616;2022-08-14T12:02:36;17.75;;;16.65;;
36195;SDS011;22237;51.974;4.616;2022-08-14T12:05:01;18.58;;;17.27;;
36195;SDS011;22237;51.974;4.616;2022-08-14T12:07:27;19.15;;;17.95;;
36195;SDS011;22237;51.974;4.616;2022-08-14T12:09:53;21.90;;;20.40;;
36195;SDS011;22237;51.974;4.616;2022-08-14T12:12:22;20.20;;;18.83;;
36195;SDS011;22237;51.974;4.616;2022-08-14T12:14:50;21.30;;;19.85;;
36195;SDS011;22237;51.974;4.616;2022-08-14T12:17:18;21.10;;;19.65;;
36195;SDS011;22237;51.974;4.616;2022-08-14T12:22:15;24.40;;;22.60;;
36195;SDS011;22237;51.974;4.616;2022-08-14T12:24:41;24.77;;;22.88;;
36195;SDS011;22237;51.974;4.616;2022-08-14T12:27:07;24.63;;;22.40;;
36195;SDS011;22237;51.974;4.616;2022-08-14T12:29:32;23.83;;;22.33;;
36195;SDS011;22237;51.974;4.616;2022-08-14T12:31:58;22.10;;;20.60;;
36195;SDS011;22237;51.974;4.616;2022-08-14T12:34:28;23.17;;;21.67;;
36195;SDS011;22237;51.974;4.616;2022-08-14T12:37:04;21.52;;;20.20;;
36195;SDS011;22237;51.974;4.616;2022-08-14T12:39:30;23.67;;;22.17;;
36195;SDS011;22237;51.974;4.616;2022-08-14T12:41:55;22.55;;;20.85;;
36195;SDS011;22237;51.974;4.616;2022-08-14T12:44:31;21.70;;;20.35;;
36195;SDS011;22237;51.974;4.616;2022-08-14T12:49:28;25.42;;;23.70;;
36195;SDS011;22237;51.974;4.616;2022-08-14T12:51:57;25.03;;;23.43;;
36195;SDS011;22237;51.974;4.616;2022-08-14T12:54:22;24.75;;;23.23;;
36195;SDS011;22237;51.974;4.616;2022-08-14T12:56:48;24.47;;;22.87;;
36195;SDS011;22237;51.974;4.616;2022-08-14T12:59:13;26.27;;;24.38;;
36195;SDS011;22237;51.974;4.616;2022-08-14T13:01:40;25.35;;;23.65;;
36195;SDS011;22237;51.974;4.616;2022-08-14T13:04:10;25.75;;;23.77;;
36195;SDS011;22237;51.974;4.616;2022-08-14T13:06:37;25.17;;;23.58;;
36195;SDS011;22237;51.974;4.616;2022-08-14T13:09:03;25.30;;;23.50;;
36195;SDS011;22237;51.974;4.616;2022-08-14T13:11:33;26.23;;;24.52;;
36195;SDS011;22237;51.974;4.616;2022-08-14T13:14:00;25.67;;;24.13;;
36195;SDS011;22237;51.974;4.616;2022-08-14T13:16:27;26.05;;;24.35;;
36195;SDS011;22237;51.974;4.616;2022-08-14T13:18:53;26.88;;;25.17;;
36195;SDS011;22237;51.974;4.616;2022-08-14T13:21:26;27.48;;;25.58;;
36195;SDS011;22237;51.974;4.616;2022-08-14T13:23:51;27.13;;;25.35;;
36195;SDS011;22237;51.974;4.616;2022-08-14T13:26:17;28.55;;;26.55;;
36195;SDS011;22237;51.974;4.616;2022-08-14T13:28:43;27.40;;;25.70;;
36195;SDS011;22237;51.974;4.616;2022-08-14T13:31:09;25.30;;;23.70;;
36195;SDS011;22237;51.974;4.616;2022-08-14T13:33:37;26.77;;;24.98;;
36195;SDS011;22237;51.974;4.616;2022-08-14T13:36:02;25.95;;;24.35;;
36195;SDS011;22237;51.974;4.616;2022-08-14T13:38:28;27.42;;;25.65;;
36195;SDS011;22237;51.974;4.616;2022-08-14T13:40:53;27.55;;;25.85;;
36195;SDS011;22237;51.974;4.616;2022-08-14T13:43:20;26.80;;;25.17;;
36195;SDS011;22237;51.974;4.616;2022-08-14T13:45:45;28.63;;;26.52;;
36195;SDS011;22237;51.974;4.616;2022-08-14T13:48:10;26.85;;;24.98;;
36195;SDS011;22237;51.974;4.616;2022-08-14T13:50:36;26.90;;;25.20;;
36195;SDS011;22237;51.974;4.616;2022-08-14T13:53:03;26.85;;;25.13;;
36195;SDS011;22237;51.974;4.616;2022-08-14T13:55:28;26.60;;;25.00;;
36195;SDS011;22237;51.974;4.616;2022-08-14T13:57:59;27.42;;;25.67;;
36195;SDS011;22237;51.974;4.616;2022-08-14T14:00:24;26.83;;;24.67;;
36195;SDS011;22237;51.974;4.616;2022-08-14T14:02:50;27.38;;;25.58;;
36195;SDS011;22237;51.974;4.616;2022-08-14T14:05:17;27.45;;;25.55;;
36195;SDS011;22237;51.974;4.616;2022-08-14T14:07:47;27.17;;;25.48;;
36195;SDS011;22237;51.974;4.616;2022-08-14T14:10:12;27.35;;;25.40;;
36195;SDS011;22237;51.974;4.616;2022-08-14T14:12:38;27.83;;;25.63;;
36195;SDS011;22237;51.974;4.616;2022-08-14T14:15:05;27.40;;;25.40;;
36195;SDS011;22237;51.974;4.616;2022-08-14T14:17:31;28.73;;;26.92;;
36195;SDS011;22237;51.974;4.616;2022-08-14T14:19:56;27.60;;;25.85;;
36195;SDS011;22237;51.974;4.616;2022-08-14T14:22:22;28.50;;;26.70;;
36195;SDS011;22237;51.974;4.616;2022-08-14T14:24:48;27.83;;;25.92;;
36195;SDS011;22237;51.974;4.616;2022-08-14T14:27:13;27.60;;;25.80;;
36195;SDS011;22237;51.974;4.616;2022-08-14T14:29:39;28.40;;;26.50;;
36195;SDS011;22237;51.974;4.616;2022-08-14T14:32:11;26.88;;;25.02;;
36195;SDS011;22237;51.974;4.616;2022-08-14T14:34:36;29.92;;;27.92;;
36195;SDS011;22237;51.974;4.616;2022-08-14T14:37:03;27.70;;;25.95;;
36195;SDS011;22237;51.974;4.616;2022-08-14T14:39:29;29.20;;;27.10;;
36195;SDS011;22237;51.974;4.616;2022-08-14T14:41:55;29.15;;;27.15;;
36195;SDS011;22237;51.974;4.616;2022-08-14T14:44:22;27.90;;;26.10;;
36195;SDS011;22237;51.974;4.616;2022-08-14T14:46:48;27.92;;;26.13;;
36195;SDS011;22237;51.974;4.616;2022-08-14T14:49:14;29.08;;;27.08;;